• Join FlightAware (Why Join?)
  • Login
  • US Flag 
02:48PM EDT


 

Airport Tracker/Info


-or-


 

Live Flight TrackerFlight Track Log ✈ AMX466 ✈ 07-Jul-2013 ✈ MMGL / GDL - KLAX

Flight Track Log - Related Links

Times and Time Zones

All times are in EDT time to prevent confusion due to time zone crossing. See the AMX466 flight status page for this flight to view local times or setup timezone preferences in your user account.

Time Position Orientation Groundspeed Altitude Reporting Facility
EDT Latitude Longitude Course Direction KTS MPH feet Rate Location/Type
11:37PM 21.3425 -104.0050 322° Northwest  Level FlightAware Approximate
11:38PM 21.4335 -104.0825 322° Northwest  Level FlightAware Approximate
11:39PM 21.5244 -104.1602 322° Northwest  Level FlightAware Approximate
11:40PM 21.6154 -104.2380 322° Northwest  Level FlightAware Approximate
11:41PM 21.7063 -104.3158 321° Northwest  Level FlightAware Approximate
11:42PM 21.7971 -104.3938 321° Northwest  Level FlightAware Approximate
11:43PM 21.8880 -104.4718 321° Northwest  Level FlightAware Approximate
11:44PM 21.9788 -104.5500 321° Northwest  Level FlightAware Approximate
11:45PM 22.0695 -104.6282 321° Northwest  Level FlightAware Approximate
11:46PM 22.1595 -104.7060 321° Northwest  Level FlightAware Approximate
11:47PM 22.2501 -104.7847 321° Northwest  Level FlightAware Approximate
11:48PM 22.3406 -104.8634 321° Northwest  Level FlightAware Approximate
11:49PM 22.4310 -104.9423 321° Northwest  Level FlightAware Approximate
11:50PM 22.5215 -105.0212 321° Northwest  Level FlightAware Approximate
11:51PM 22.6119 -105.1002 321° Northwest  Level FlightAware Approximate
11:52PM 22.7022 -105.1794 321° Northwest  Level FlightAware Approximate
11:53PM 22.7926 -105.2586 321° Northwest  Level FlightAware Approximate
11:54PM 22.8828 -105.3380 321° Northwest  Level FlightAware Approximate
11:55PM 22.9731 -105.4174 321° Northwest  Level FlightAware Approximate
11:56PM 23.0633 -105.4970 321° Northwest  Level FlightAware Approximate
11:57PM 23.1551 -105.5743 322° Northwest  Level FlightAware Approximate
11:58PM 23.2470 -105.6517 322° Northwest  Level FlightAware Approximate
11:59PM 23.3389 -105.7291 322° Northwest  Level FlightAware Approximate
12:00AM 23.4300 -105.8077 321° Northwest  Level FlightAware Approximate
12:01AM 23.5204 -105.8873 321° Northwest  Level FlightAware Approximate
12:02AM 23.6107 -105.9670 321° Northwest  Level FlightAware Approximate
12:03AM 23.7010 -106.0468 321° Northwest  Level FlightAware Approximate
12:04AM 23.7913 -106.1267 321° Northwest  Level FlightAware Approximate
12:05AM 23.8815 -106.2067 321° Northwest  Level FlightAware Approximate
12:06AM 23.9717 -106.2868 321° Northwest  Level FlightAware Approximate
12:07AM 24.0619 -106.3671 321° Northwest  Level FlightAware Approximate
12:08AM 24.1520 -106.4474 321° Northwest  Level FlightAware Approximate
12:09AM 24.2420 -106.5279 321° Northwest  Level FlightAware Approximate
12:10AM 24.3321 -106.6085 321° Northwest  Level FlightAware Approximate
12:11AM 24.4220 -106.6892 321° Northwest  Level FlightAware Approximate
12:12AM 24.5119 -106.7700 321° Northwest  Level FlightAware Approximate
12:13AM 24.6018 -106.8509 321° Northwest  Level FlightAware Approximate
12:14AM 24.6917 -106.9320 321° Northwest  Level FlightAware Approximate
12:15AM 24.7815 -107.0132 321° Northwest  Level FlightAware Approximate
12:16AM 24.8713 -107.0944 321° Northwest  Level FlightAware Approximate
12:17AM 24.9610 -107.1758 321° Northwest  Level FlightAware Approximate
12:18AM 25.0506 -107.2574 321° Northwest  Level FlightAware Approximate
12:19AM 25.1403 -107.3390 320° Northwest  Level FlightAware Approximate
12:20AM 25.2298 -107.4208 320° Northwest  Level FlightAware Approximate
12:21AM 25.3194 -107.5026 320° Northwest  Level FlightAware Approximate
12:22AM 25.4089 -107.5846 320° Northwest  Level FlightAware Approximate
12:23AM 25.4983 -107.6668 320° Northwest  Level FlightAware Approximate
12:24AM 25.5877 -107.7490 320° Northwest  Level FlightAware Approximate
12:25AM 25.6771 -107.8314 320° Northwest  Level FlightAware Approximate
12:26AM 25.7660 -107.9143 319° Northwest  Level FlightAware Approximate
12:27AM 25.8543 -107.9982 319° Northwest  Level FlightAware Approximate
12:28AM 25.9425 -108.0822 319° Northwest  Level FlightAware Approximate
12:29AM 26.0307 -108.1664 319° Northwest  Level FlightAware Approximate
12:30AM 26.1193 -108.2501 320° Northwest  Level FlightAware Approximate
12:31AM 26.2084 -108.3332 320° Northwest  Level FlightAware Approximate
12:32AM 26.2974 -108.4164 320° Northwest  Level FlightAware Approximate
12:33AM 26.3864 -108.4997 320° Northwest  Level FlightAware Approximate
12:34AM 26.4754 -108.5832 320° Northwest  Level FlightAware Approximate
12:35AM 26.5643 -108.6668 320° Northwest  Level FlightAware Approximate
12:36AM 26.6531 -108.7505 320° Northwest  Level FlightAware Approximate
12:37AM 26.7419 -108.8344 320° Northwest  Level FlightAware Approximate
12:38AM 26.8307 -108.9184 320° Northwest  Level FlightAware Approximate
12:39AM 26.9194 -109.0025 320° Northwest  Level FlightAware Approximate
12:40AM 27.0081 -109.0867 320° Northwest  Level FlightAware Approximate
12:41AM 27.0967 -109.1711 320° Northwest  Level FlightAware Approximate
12:42AM 27.1852 -109.2556 320° Northwest  Level FlightAware Approximate
12:43AM 27.2738 -109.3403 320° Northwest  Level FlightAware Approximate
12:44AM 27.3622 -109.4250 320° Northwest  Level FlightAware Approximate
12:45AM 27.4506 -109.5100 320° Northwest  Level FlightAware Approximate
12:46AM 27.5390 -109.5950 320° Northwest  Level FlightAware Approximate
12:47AM 27.6273 -109.6802 319° Northwest  Level FlightAware Approximate
12:48AM 27.7155 -109.7655 319° Northwest  Level FlightAware Approximate
12:49AM 27.8036 -109.8511 319° Northwest  Level FlightAware Approximate
12:50AM 27.8917 -109.9368 319° Northwest  Level FlightAware Approximate
12:51AM 27.9797 -110.0227 319° Northwest  Level FlightAware Approximate
12:52AM 28.0676 -110.1087 319° Northwest  Level FlightAware Approximate
12:53AM 28.1555 -110.1948 319° Northwest  Level FlightAware Approximate
12:54AM 28.2434 -110.2811 319° Northwest  Level FlightAware Approximate
12:55AM 28.3312 -110.3675 319° Northwest  Level FlightAware Approximate
12:56AM 28.4189 -110.4541 319° Northwest  Level FlightAware Approximate
12:57AM 28.5066 -110.5408 319° Northwest  Level FlightAware Approximate
12:58AM 28.5942 -110.6277 319° Northwest  Level FlightAware Approximate
12:59AM 28.6818 -110.7147 319° Northwest  Level FlightAware Approximate
01:00AM 28.7693 -110.8018 319° Northwest  Level FlightAware Approximate
01:01AM 28.8568 -110.8891 319° Northwest  Level FlightAware Approximate
01:02AM 28.9442 -110.9765 319° Northwest  Level FlightAware Approximate
01:03AM 29.0315 -111.0641 319° Northwest  Level FlightAware Approximate
01:04AM 29.1188 -111.1518 319° Northwest  Level FlightAware Approximate
01:05AM 29.2059 -111.2399 318° Northwest  Level FlightAware Approximate
01:06AM 29.2928 -111.3283 318° Northwest  Level FlightAware Approximate
01:07AM 29.3797 -111.4168 318° Northwest  Level FlightAware Approximate
01:08AM 29.4664 -111.5055 318° Northwest  Level FlightAware Approximate
01:09AM 29.5532 -111.5944 318° Northwest  Level FlightAware Approximate
01:10AM 29.6398 -111.6834 318° Northwest  Level FlightAware Approximate
01:11AM 29.7264 -111.7725 318° Northwest  Level FlightAware Approximate
01:12AM 29.8130 -111.8618 318° Northwest  Level FlightAware Approximate
01:13AM 29.8994 -111.9513 318° Northwest  Level FlightAware Approximate
01:14AM 29.9858 -112.0409 318° Northwest  Level FlightAware Approximate
01:15AM 30.0722 -112.1307 318° Northwest  Level FlightAware Approximate
01:16AM 30.1585 -112.2206 318° Northwest  Level FlightAware Approximate
01:17AM 30.2447 -112.3107 318° Northwest  Level FlightAware Approximate
01:18AM 30.3309 -112.4010 318° Northwest  Level FlightAware Approximate
01:19AM 30.4170 -112.4914 318° Northwest  Level FlightAware Approximate
01:20AM 30.5030 -112.5820 318° Northwest  Level FlightAware Approximate
01:21AM 30.5892 -112.6725 319° Northwest  Level FlightAware Approximate
01:22AM 30.6774 -112.7603 319° Northwest  Level FlightAware Approximate
01:23AM 30.7656 -112.8483 319° Northwest  Level FlightAware Approximate
01:24AM 30.8537 -112.9365 319° Northwest  Level FlightAware Approximate
01:25AM 30.9417 -113.0249 319° Northwest  Level FlightAware Approximate
01:26AM 31.0275 -113.1162 316° Northwest  Level FlightAware Approximate
01:27AM 31.1111 -113.2104 316° Northwest  Level FlightAware Approximate
01:28AM 31.1946 -113.3048 316° Northwest  Level FlightAware Approximate
01:29AM 31.2781 -113.3993 316° Northwest  Level FlightAware Approximate
01:30AM 31.3614 -113.4940 316° Northwest  Level FlightAware Approximate
01:31AM 31.4300 -113.6038 306° West  Level FlightAware Approximate
01:32AM 31.4976 -113.7146 306° West  Level FlightAware Approximate
01:33AM 31.5650 -113.8256 306° West  Level FlightAware Approximate
01:34AM 31.6316 -113.9373 305° West  Level FlightAware Approximate
01:35AM 31.6974 -114.0498 305° West  Level FlightAware Approximate
01:36AM 31.7631 -114.1625 304° West  Level FlightAware Approximate
01:37AM 31.8287 -114.2754 304° West  Level FlightAware Approximate
01:37AM 32.1156 -114.6603 304° West 447 514 39,900  Level Los Angeles Center
01:38AM 31.8946 -114.3880 305° West  Level FlightAware Approximate
01:38AM 32.1822 -114.7861 302° West 450 518 39,900  Level Los Angeles Center
01:39AM 31.9605 -114.5008 305° West  Level FlightAware Approximate
01:39AM 32.2500 -114.9111 303° West 451 519 39,900  Level Los Angeles Center
01:40AM 32.0262 -114.6137 304° West  Level FlightAware Approximate
01:40AM 32.3192 -115.0364 303° West 454 522 39,900  Level Los Angeles Center
01:41AM 32.0917 -114.7270 304° West  Level FlightAware Approximate
01:41AM 32.3858 -115.1617 302° West 452 520 39,900  Level Los Angeles Center
01:42AM 32.1568 -114.8406 304° West  Level FlightAware Approximate
01:42AM 32.4622 -115.3006 303° West 452 520 40,000  Level Los Angeles Center
01:43AM 32.5286 -115.4253 302° West 449 517 39,900 -60 Descending Los Angeles Center
01:44AM 32.5942 -115.5503 302° West 449 517 39,900  Level Los Angeles Center
01:45AM 32.6622 -115.6747 303° West 451 519 39,900  Level Los Angeles Center
01:46AM 32.7292 -115.7972 303° West 445 512 39,900 -1,200 Level Los Angeles Center
01:47AM 32.7950 -115.9244 302° West 450 518 37,500 -2,640 Descending Los Angeles Center
01:48AM 32.8622 -116.0500 303° West 453 521 34,600 -3,120 Descending Los Angeles Center
01:49AM 32.9431 -116.2014 302° West 458 527 31,200 -2,700 Descending Los Angeles Center
01:50AM 32.9986 -116.3075 302° West 455 524 29,200 -2,100 Descending Los Angeles Center
01:51AM 33.0706 -116.4456 302° West 438 504 27,000 -2,220 Descending Los Angeles Center
01:52AM 33.1297 -116.5633 301° West 423 487 24,800 -2,340 Descending Los Angeles Center
01:53AM 33.1539 -116.6906 283° West 406 467 22,300 -2,340 Descending Los Angeles Center
01:54AM 33.1700 -116.8197 279° West 398 458 20,100 -2,280 Descending Los Angeles Center
01:55AM 33.1872 -116.9706 278° West 386 444 17,700 -2,220 Descending Los Angeles Center
01:56AM 33.2014 -117.0919 278° West 373 429 15,700 -1,920 Descending Los Angeles Center
01:57AM 33.2167 -117.1667 284° West 358 412 14,600 -1,860 Descending Southern California TRACON
01:58AM 33.2167 -117.2833 270° West 354 407 12,700 -1,380 Descending Southern California TRACON
01:59AM 33.2333 -117.4000 280° West 378 435 11,900 -1,080 Descending Southern California TRACON
02:00AM 33.2833 -117.4833 306° West 333 383 10,600 -1,200 Descending Southern California TRACON
02:01AM 33.3500 -117.5500 320° Northwest 294 338 9,500 -1,380 Descending Southern California TRACON
02:02AM 33.4000 -117.6167 312° West 288 331 7,900 -1,380 Descending Southern California TRACON
02:02AM 33.4344 -117.6489 322° Northwest 291 335 7,500 -600 Descending Los Angeles Center
02:03AM 33.4906 -117.7144 316° Northwest 286 329 7,000 -300 Descending Los Angeles Center
02:04AM 33.5456 -117.7769 317° Northwest 276 318 7,000 -60 Level Los Angeles Center
02:05AM 33.6014 -117.8422 316° Northwest 279 321 6,900 -60 Descending Los Angeles Center
02:06AM 33.6564 -117.9058 316° Northwest 277 319 6,900  Level Los Angeles Center
02:08AM 33.7122 -117.9708 316° Northwest 280 322 6,900  Level Los Angeles Center
02:09AM 33.7667 -118.0356 315° West 278 320 6,900 -420 Level Los Angeles Center
02:10AM 33.8386 -118.0667 340° North 284 327 6,100 -1,140 Descending Los Angeles Center
02:11AM 33.9253 -118.0925 346° North 273 314 4,700 -1,140 Descending Los Angeles Center
02:12AM 33.9658 -118.1419 315° West 232 267 3,800 -720 Descending Los Angeles Center
02:13AM 33.9742 -118.2064 279° West 201 231 3,300 -780 Descending Los Angeles Center
02:14AM 33.9658 -118.2672 261° West 190 219 2,300 -900 Descending Los Angeles Center
02:15AM 33.9606 -118.3222 263° West 179 206 1,500 -780 Descending Los Angeles Center
02:16AM 33.9572 -118.3669 265° West 154 177 800 -660 Descending Los Angeles Center
02:17AM 33.9519 -118.4150 262° West 143 165 200 -600 Descending Los Angeles Center